sensor_id;sensor_type;location;lat;lon;timestamp;temperature;humidity
24158;DHT22;12316;50.904;4.200;2023-06-10T00:00:37;22.40;93.50
24158;DHT22;12316;50.904;4.200;2023-06-10T00:03:03;22.30;93.50
24158;DHT22;12316;50.904;4.200;2023-06-10T00:05:29;22.30;93.60
24158;DHT22;12316;50.904;4.200;2023-06-10T00:07:57;22.30;93.80
24158;DHT22;12316;50.904;4.200;2023-06-10T00:10:24;22.20;93.80
24158;DHT22;12316;50.904;4.200;2023-06-10T00:12:51;22.20;94.00
24158;DHT22;12316;50.904;4.200;2023-06-10T00:15:17;22.10;94.30
24158;DHT22;12316;50.904;4.200;2023-06-10T00:17:42;22.20;94.00
24158;DHT22;12316;50.904;4.200;2023-06-10T00:20:09;22.10;94.10
24158;DHT22;12316;50.904;4.200;2023-06-10T00:22:37;22.10;94.10
24158;DHT22;12316;50.904;4.200;2023-06-10T00:25:05;22.10;94.10
24158;DHT22;12316;50.904;4.200;2023-06-10T00:27:31;22.10;94.10
24158;DHT22;12316;50.904;4.200;2023-06-10T00:30:02;22.10;94.40
24158;DHT22;12316;50.904;4.200;2023-06-10T00:32:30;22.10;94.20
24158;DHT22;12316;50.904;4.200;2023-06-10T00:34:56;22.00;94.30
24158;DHT22;12316;50.904;4.200;2023-06-10T00:37:22;21.90;94.40
24158;DHT22;12316;50.904;4.200;2023-06-10T00:39:48;21.90;94.80
24158;DHT22;12316;50.904;4.200;2023-06-10T00:42:13;21.80;94.60
24158;DHT22;12316;50.904;4.200;2023-06-10T00:44:39;21.80;94.60
24158;DHT22;12316;50.904;4.200;2023-06-10T00:47:05;21.80;94.60
24158;DHT22;12316;50.904;4.200;2023-06-10T00:49:32;21.80;94.60
24158;DHT22;12316;50.904;4.200;2023-06-10T00:51:58;21.80;94.60
24158;DHT22;12316;50.904;4.200;2023-06-10T00:54:24;21.80;94.70
24158;DHT22;12316;50.904;4.200;2023-06-10T00:56:51;21.80;94.50
24158;DHT22;12316;50.904;4.200;2023-06-10T00:59:18;21.80;94.60
24158;DHT22;12316;50.904;4.200;2023-06-10T01:01:45;21.70;94.70
24158;DHT22;12316;50.904;4.200;2023-06-10T01:04:13;21.70;94.80
24158;DHT22;12316;50.904;4.200;2023-06-10T01:09:23;21.60;95.00
24158;DHT22;12316;50.904;4.200;2023-06-10T01:11:58;21.60;94.80
24158;DHT22;12316;50.904;4.200;2023-06-10T01:14:27;21.60;94.90
24158;DHT22;12316;50.904;4.200;2023-06-10T01:16:53;21.50;95.00
24158;DHT22;12316;50.904;4.200;2023-06-10T01:19:19;21.50;95.00
24158;DHT22;12316;50.904;4.200;2023-06-10T01:21:45;21.50;95.10
24158;DHT22;12316;50.904;4.200;2023-06-10T01:24:14;21.50;95.10
24158;DHT22;12316;50.904;4.200;2023-06-10T01:26:44;21.40;95.10
24158;DHT22;12316;50.904;4.200;2023-06-10T01:29:18;21.40;95.20
24158;DHT22;12316;50.904;4.200;2023-06-10T01:32:00;21.40;95.30
24158;DHT22;12316;50.904;4.200;2023-06-10T01:34:27;21.30;95.40
24158;DHT22;12316;50.904;4.200;2023-06-10T01:36:55;21.30;95.70
24158;DHT22;12316;50.904;4.200;2023-06-10T01:39:23;21.30;95.40
24158;DHT22;12316;50.904;4.200;2023-06-10T01:41:50;21.30;95.50
24158;DHT22;12316;50.904;4.200;2023-06-10T01:44:20;21.30;95.50
24158;DHT22;12316;50.904;4.200;2023-06-10T01:46:46;21.20;95.60
24158;DHT22;12316;50.904;4.200;2023-06-10T01:49:12;21.20;95.70
24158;DHT22;12316;50.904;4.200;2023-06-10T01:51:38;21.20;95.80
24158;DHT22;12316;50.904;4.200;2023-06-10T01:54:04;21.20;95.80
24158;DHT22;12316;50.904;4.200;2023-06-10T01:56:29;21.20;96.00
24158;DHT22;12316;50.904;4.200;2023-06-10T01:58:55;21.10;95.80
24158;DHT22;12316;50.904;4.200;2023-06-10T02:01:25;21.10;95.90
24158;DHT22;12316;50.904;4.200;2023-06-10T02:03:50;21.10;96.00
24158;DHT22;12316;50.904;4.200;2023-06-10T02:06:16;21.00;96.10
24158;DHT22;12316;50.904;4.200;2023-06-10T02:08:42;21.00;96.20
24158;DHT22;12316;50.904;4.200;2023-06-10T02:11:08;20.90;96.30
24158;DHT22;12316;50.904;4.200;2023-06-10T02:13:34;20.80;96.50
24158;DHT22;12316;50.904;4.200;2023-06-10T02:16:00;20.80;96.60
24158;DHT22;12316;50.904;4.200;2023-06-10T02:18:27;20.80;96.60
24158;DHT22;12316;50.904;4.200;2023-06-10T02:20:53;20.80;96.60
24158;DHT22;12316;50.904;4.200;2023-06-10T02:23:19;20.80;96.70
24158;DHT22;12316;50.904;4.200;2023-06-10T02:25:45;20.80;96.80
24158;DHT22;12316;50.904;4.200;2023-06-10T02:28:12;20.70;96.90
24158;DHT22;12316;50.904;4.200;2023-06-10T02:30:42;20.70;96.90
24158;DHT22;12316;50.904;4.200;2023-06-10T02:33:08;20.70;96.90
24158;DHT22;12316;50.904;4.200;2023-06-10T02:35:38;20.60;97.00
24158;DHT22;12316;50.904;4.200;2023-06-10T02:38:03;20.60;97.10
24158;DHT22;12316;50.904;4.200;2023-06-10T02:40:29;20.60;97.10
24158;DHT22;12316;50.904;4.200;2023-06-10T02:42:55;20.60;97.20
24158;DHT22;12316;50.904;4.200;2023-06-10T02:45:20;20.70;97.10
24158;DHT22;12316;50.904;4.200;2023-06-10T02:47:46;20.70;97.20
24158;DHT22;12316;50.904;4.200;2023-06-10T02:50:11;20.60;97.20
24158;DHT22;12316;50.904;4.200;2023-06-10T02:52:37;20.60;97.30
24158;DHT22;12316;50.904;4.200;2023-06-10T02:55:03;20.50;97.50
24158;DHT22;12316;50.904;4.200;2023-06-10T02:57:29;20.50;97.60
24158;DHT22;12316;50.904;4.200;2023-06-10T02:59:54;20.50;97.70
24158;DHT22;12316;50.904;4.200;2023-06-10T03:02:21;20.50;97.80
24158;DHT22;12316;50.904;4.200;2023-06-10T03:04:47;20.40;97.80
24158;DHT22;12316;50.904;4.200;2023-06-10T03:07:13;20.50;97.80
24158;DHT22;12316;50.904;4.200;2023-06-10T03:09:39;20.40;98.00
24158;DHT22;12316;50.904;4.200;2023-06-10T03:12:05;20.40;98.10
24158;DHT22;12316;50.904;4.200;2023-06-10T03:14:31;20.40;98.10
24158;DHT22;12316;50.904;4.200;2023-06-10T03:16:57;20.30;98.30
24158;DHT22;12316;50.904;4.200;2023-06-10T03:19:22;20.20;98.50
24158;DHT22;12316;50.904;4.200;2023-06-10T03:21:50;20.20;98.70
24158;DHT22;12316;50.904;4.200;2023-06-10T03:24:20;20.10;98.80
24158;DHT22;12316;50.904;4.200;2023-06-10T03:26:45;20.10;98.90
24158;DHT22;12316;50.904;4.200;2023-06-10T03:29:11;20.10;99.00
24158;DHT22;12316;50.904;4.200;2023-06-10T03:31:37;20.10;99.20
24158;DHT22;12316;50.904;4.200;2023-06-10T03:34:04;20.10;99.20
24158;DHT22;12316;50.904;4.200;2023-06-10T03:36:29;20.00;99.40
24158;DHT22;12316;50.904;4.200;2023-06-10T03:38:55;20.00;99.50
24158;DHT22;12316;50.904;4.200;2023-06-10T03:41:22;20.00;99.60
24158;DHT22;12316;50.904;4.200;2023-06-10T03:43:48;20.00;99.70
24158;DHT22;12316;50.904;4.200;2023-06-10T03:46:14;19.90;99.80
24158;DHT22;12316;50.904;4.200;2023-06-10T03:48:40;20.00;99.80
24158;DHT22;12316;50.904;4.200;2023-06-10T03:51:06;20.10;99.80
24158;DHT22;12316;50.904;4.200;2023-06-10T03:53:31;20.00;99.90
24158;DHT22;12316;50.904;4.200;2023-06-10T03:55:57;20.00;99.90
24158;DHT22;12316;50.904;4.200;2023-06-10T03:58:23;20.00;99.90
24158;DHT22;12316;50.904;4.200;2023-06-10T04:00:48;19.90;99.90
24158;DHT22;12316;50.904;4.200;2023-06-10T04:03:14;19.90;99.90
24158;DHT22;12316;50.904;4.200;2023-06-10T04:05:41;19.90;99.90
24158;DHT22;12316;50.904;4.200;2023-06-10T04:08:09;20.00;99.90
24158;DHT22;12316;50.904;4.200;2023-06-10T04:10:35;20.00;99.90
24158;DHT22;12316;50.904;4.200;2023-06-10T04:13:01;20.00;99.90
24158;DHT22;12316;50.904;4.200;2023-06-10T04:15:27;20.00;99.90
24158;DHT22;12316;50.904;4.200;2023-06-10T04:17:53;20.10;99.90
24158;DHT22;12316;50.904;4.200;2023-06-10T04:20:18;20.10;99.90
24158;DHT22;12316;50.904;4.200;2023-06-10T04:22:44;20.20;99.90
24158;DHT22;12316;50.904;4.200;2023-06-10T04:25:09;20.40;99.90
24158;DHT22;12316;50.904;4.200;2023-06-10T04:27:35;20.60;99.90
24158;DHT22;12316;50.904;4.200;2023-06-10T04:30:02;20.80;99.90
24158;DHT22;12316;50.904;4.200;2023-06-10T04:32:29;21.00;99.70
24158;DHT22;12316;50.904;4.200;2023-06-10T04:34:54;21.20;99.50
24158;DHT22;12316;50.904;4.200;2023-06-10T04:37:20;21.50;99.20
24158;DHT22;12316;50.904;4.200;2023-06-10T04:39:46;21.60;98.80
24158;DHT22;12316;50.904;4.200;2023-06-10T04:42:11;21.90;98.70
24158;DHT22;12316;50.904;4.200;2023-06-10T04:44:37;22.10;98.30
24158;DHT22;12316;50.904;4.200;2023-06-10T04:47:03;22.30;98.10
24158;DHT22;12316;50.904;4.200;2023-06-10T04:49:29;22.40;97.80
24158;DHT22;12316;50.904;4.200;2023-06-10T04:51:55;22.60;97.80
24158;DHT22;12316;50.904;4.200;2023-06-10T04:54:20;22.80;97.60
24158;DHT22;12316;50.904;4.200;2023-06-10T04:56:46;23.00;97.10
24158;DHT22;12316;50.904;4.200;2023-06-10T04:59:12;23.00;97.30
24158;DHT22;12316;50.904;4.200;2023-06-10T05:01:39;23.10;97.00
24158;DHT22;12316;50.904;4.200;2023-06-10T05:04:05;23.20;96.90
24158;DHT22;12316;50.904;4.200;2023-06-10T05:06:30;23.40;96.80
24158;DHT22;12316;50.904;4.200;2023-06-10T05:08:56;23.50;96.40
24158;DHT22;12316;50.904;4.200;2023-06-10T05:11:22;23.50;96.60
24158;DHT22;12316;50.904;4.200;2023-06-10T05:13:47;23.80;96.50
24158;DHT22;12316;50.904;4.200;2023-06-10T05:16:14;24.20;96.30
24158;DHT22;12316;50.904;4.200;2023-06-10T05:18:40;24.60;95.90
24158;DHT22;12316;50.904;4.200;2023-06-10T05:21:06;24.90;95.20
24158;DHT22;12316;50.904;4.200;2023-06-10T05:23:32;25.20;95.10
24158;DHT22;12316;50.904;4.200;2023-06-10T05:25:58;25.50;94.60
24158;DHT22;12316;50.904;4.200;2023-06-10T05:28:25;25.70;93.80
24158;DHT22;12316;50.904;4.200;2023-06-10T05:30:51;25.70;93.60
24158;DHT22;12316;50.904;4.200;2023-06-10T05:33:17;25.70;93.90
24158;DHT22;12316;50.904;4.200;2023-06-10T05:35:42;26.00;93.50
24158;DHT22;12316;50.904;4.200;2023-06-10T05:38:08;25.90;93.10
24158;DHT22;12316;50.904;4.200;2023-06-10T05:40:34;26.00;93.20
24158;DHT22;12316;50.904;4.200;2023-06-10T05:42:59;26.00;93.40
24158;DHT22;12316;50.904;4.200;2023-06-10T05:45:25;25.80;93.50
24158;DHT22;12316;50.904;4.200;2023-06-10T05:47:51;25.40;94.00
24158;DHT22;12316;50.904;4.200;2023-06-10T05:50:17;25.30;94.20
24158;DHT22;12316;50.904;4.200;2023-06-10T05:52:42;25.30;94.20
24158;DHT22;12316;50.904;4.200;2023-06-10T05:55:08;25.30;94.50
24158;DHT22;12316;50.904;4.200;2023-06-10T05:57:34;25.40;94.30
24158;DHT22;12316;50.904;4.200;2023-06-10T06:00:00;25.60;94.40
24158;DHT22;12316;50.904;4.200;2023-06-10T06:02:25;25.70;94.10
24158;DHT22;12316;50.904;4.200;2023-06-10T06:04:51;25.80;94.30
24158;DHT22;12316;50.904;4.200;2023-06-10T06:07:17;25.80;93.90
24158;DHT22;12316;50.904;4.200;2023-06-10T06:09:42;25.80;94.10
24158;DHT22;12316;50.904;4.200;2023-06-10T06:12:08;26.00;93.90
24158;DHT22;12316;50.904;4.200;2023-06-10T06:14:37;25.80;93.70
24158;DHT22;12316;50.904;4.200;2023-06-10T06:17:05;25.90;93.80
24158;DHT22;12316;50.904;4.200;2023-06-10T06:19:30;26.00;93.70
24158;DHT22;12316;50.904;4.200;2023-06-10T06:21:56;26.10;94.00
24158;DHT22;12316;50.904;4.200;2023-06-10T06:24:22;26.40;93.50
24158;DHT22;12316;50.904;4.200;2023-06-10T06:26:47;26.50;93.30
24158;DHT22;12316;50.904;4.200;2023-06-10T06:29:13;26.70;92.70
24158;DHT22;12316;50.904;4.200;2023-06-10T06:31:39;26.90;92.90
24158;DHT22;12316;50.904;4.200;2023-06-10T06:34:04;26.90;92.20
24158;DHT22;12316;50.904;4.200;2023-06-10T06:36:30;26.60;92.50
24158;DHT22;12316;50.904;4.200;2023-06-10T06:38:55;26.50;92.90
24158;DHT22;12316;50.904;4.200;2023-06-10T06:41:21;26.10;92.90
24158;DHT22;12316;50.904;4.200;2023-06-10T06:43:47;26.10;93.70
24158;DHT22;12316;50.904;4.200;2023-06-10T06:46:13;26.40;93.30
24158;DHT22;12316;50.904;4.200;2023-06-10T06:48:39;26.60;93.60
24158;DHT22;12316;50.904;4.200;2023-06-10T06:51:04;26.70;93.20
24158;DHT22;12316;50.904;4.200;2023-06-10T06:53:30;26.60;92.90
24158;DHT22;12316;50.904;4.200;2023-06-10T06:55:55;26.50;93.20
24158;DHT22;12316;50.904;4.200;2023-06-10T06:58:21;26.50;93.30
24158;DHT22;12316;50.904;4.200;2023-06-10T07:00:47;26.50;93.70
24158;DHT22;12316;50.904;4.200;2023-06-10T07:03:12;26.40;93.40
24158;DHT22;12316;50.904;4.200;2023-06-10T07:05:38;26.00;93.80
24158;DHT22;12316;50.904;4.200;2023-06-10T07:08:04;25.80;94.20
24158;DHT22;12316;50.904;4.200;2023-06-10T07:10:30;25.90;94.20
24158;DHT22;12316;50.904;4.200;2023-06-10T07:12:56;25.70;92.90
24158;DHT22;12316;50.904;4.200;2023-06-10T07:15:21;25.70;93.50
24158;DHT22;12316;50.904;4.200;2023-06-10T07:17:47;25.60;93.70
24158;DHT22;12316;50.904;4.200;2023-06-10T07:20:13;25.50;93.90
24158;DHT22;12316;50.904;4.200;2023-06-10T07:22:41;25.60;94.00
24158;DHT22;12316;50.904;4.200;2023-06-10T07:25:07;25.80;93.80
24158;DHT22;12316;50.904;4.200;2023-06-10T07:27:32;25.70;93.60
24158;DHT22;12316;50.904;4.200;2023-06-10T07:29:58;25.40;93.90
24158;DHT22;12316;50.904;4.200;2023-06-10T07:32:26;25.40;94.40
24158;DHT22;12316;50.904;4.200;2023-06-10T07:34:51;25.40;94.10
24158;DHT22;12316;50.904;4.200;2023-06-10T07:37:18;25.50;94.50
24158;DHT22;12316;50.904;4.200;2023-06-10T07:39:45;25.70;94.50
24158;DHT22;12316;50.904;4.200;2023-06-10T07:42:10;25.70;94.60
24158;DHT22;12316;50.904;4.200;2023-06-10T07:44:36;25.80;94.30
24158;DHT22;12316;50.904;4.200;2023-06-10T07:47:02;25.90;94.70
24158;DHT22;12316;50.904;4.200;2023-06-10T07:49:28;26.10;93.80
24158;DHT22;12316;50.904;4.200;2023-06-10T07:51:54;26.10;94.10
24158;DHT22;12316;50.904;4.200;2023-06-10T07:54:23;26.30;93.90
24158;DHT22;12316;50.904;4.200;2023-06-10T07:56:48;26.40;93.80
24158;DHT22;12316;50.904;4.200;2023-06-10T07:59:14;26.50;93.20
24158;DHT22;12316;50.904;4.200;2023-06-10T08:01:40;26.70;92.30
24158;DHT22;12316;50.904;4.200;2023-06-10T08:04:06;26.70;92.50
24158;DHT22;12316;50.904;4.200;2023-06-10T08:06:32;26.70;91.30
24158;DHT22;12316;50.904;4.200;2023-06-10T08:08:57;26.60;91.20
24158;DHT22;12316;50.904;4.200;2023-06-10T08:11:23;26.70;91.10
24158;DHT22;12316;50.904;4.200;2023-06-10T08:13:49;26.70;90.90
24158;DHT22;12316;50.904;4.200;2023-06-10T08:16:14;26.80;90.80
24158;DHT22;12316;50.904;4.200;2023-06-10T08:18:40;26.70;91.10
24158;DHT22;12316;50.904;4.200;2023-06-10T08:21:06;26.90;90.90
24158;DHT22;12316;50.904;4.200;2023-06-10T08:23:32;26.90;90.20
24158;DHT22;12316;50.904;4.200;2023-06-10T08:25:57;26.90;90.20
24158;DHT22;12316;50.904;4.200;2023-06-10T08:28:23;27.00;89.30
24158;DHT22;12316;50.904;4.200;2023-06-10T08:30:49;26.90;88.70
24158;DHT22;12316;50.904;4.200;2023-06-10T08:33:15;27.00;90.30
24158;DHT22;12316;50.904;4.200;2023-06-10T08:35:40;27.10;88.70
24158;DHT22;12316;50.904;4.200;2023-06-10T08:38:06;27.20;89.50
24158;DHT22;12316;50.904;4.200;2023-06-10T08:40:33;27.10;88.80
24158;DHT22;12316;50.904;4.200;2023-06-10T08:45:30;27.20;89.70
24158;DHT22;12316;50.904;4.200;2023-06-10T08:48:05;27.40;88.00
24158;DHT22;12316;50.904;4.200;2023-06-10T08:50:37;27.40;87.00
24158;DHT22;12316;50.904;4.200;2023-06-10T08:53:07;27.50;86.30
24158;DHT22;12316;50.904;4.200;2023-06-10T08:55:36;27.60;88.00
24158;DHT22;12316;50.904;4.200;2023-06-10T08:58:04;27.70;87.20
24158;DHT22;12316;50.904;4.200;2023-06-10T09:00:30;27.80;88.60
24158;DHT22;12316;50.904;4.200;2023-06-10T09:02:57;27.80;87.20
24158;DHT22;12316;50.904;4.200;2023-06-10T09:05:24;27.90;88.60
24158;DHT22;12316;50.904;4.200;2023-06-10T09:07:52;28.00;86.00
24158;DHT22;12316;50.904;4.200;2023-06-10T09:10:18;28.00;86.00
24158;DHT22;12316;50.904;4.200;2023-06-10T09:12:43;28.10;84.60
24158;DHT22;12316;50.904;4.200;2023-06-10T09:15:10;27.90;85.90
24158;DHT22;12316;50.904;4.200;2023-06-10T09:17:38;27.90;85.50
24158;DHT22;12316;50.904;4.200;2023-06-10T09:20:08;27.90;85.60
24158;DHT22;12316;50.904;4.200;2023-06-10T09:22:34;28.10;87.20
24158;DHT22;12316;50.904;4.200;2023-06-10T09:25:07;28.20;86.10
24158;DHT22;12316;50.904;4.200;2023-06-10T09:27:50;28.40;86.50
24158;DHT22;12316;50.904;4.200;2023-06-10T09:30:26;28.60;84.90
24158;DHT22;12316;50.904;4.200;2023-06-10T09:32:56;28.70;85.20
24158;DHT22;12316;50.904;4.200;2023-06-10T09:35:24;28.70;82.60
24158;DHT22;12316;50.904;4.200;2023-06-10T09:37:55;28.70;83.50
24158;DHT22;12316;50.904;4.200;2023-06-10T09:40:21;28.80;84.20
24158;DHT22;12316;50.904;4.200;2023-06-10T09:42:53;28.90;84.00
24158;DHT22;12316;50.904;4.200;2023-06-10T09:45:20;28.80;82.70
24158;DHT22;12316;50.904;4.200;2023-06-10T09:47:53;28.80;83.50
24158;DHT22;12316;50.904;4.200;2023-06-10T09:50:19;28.70;81.90
24158;DHT22;12316;50.904;4.200;2023-06-10T09:52:46;28.80;82.10
24158;DHT22;12316;50.904;4.200;2023-06-10T09:55:13;29.00;82.90
24158;DHT22;12316;50.904;4.200;2023-06-10T09:57:38;29.10;80.70
24158;DHT22;12316;50.904;4.200;2023-06-10T10:00:11;29.00;78.60
24158;DHT22;12316;50.904;4.200;2023-06-10T10:02:50;29.00;80.40
24158;DHT22;12316;50.904;4.200;2023-06-10T10:05:18;29.10;80.20
24158;DHT22;12316;50.904;4.200;2023-06-10T10:07:44;29.10;79.40
24158;DHT22;12316;50.904;4.200;2023-06-10T10:10:11;29.20;78.40
24158;DHT22;12316;50.904;4.200;2023-06-10T10:12:41;29.20;79.50
24158;DHT22;12316;50.904;4.200;2023-06-10T10:15:11;29.40;79.60
24158;DHT22;12316;50.904;4.200;2023-06-10T10:17:44;29.30;76.50
24158;DHT22;12316;50.904;4.200;2023-06-10T10:20:13;29.10;77.30
24158;DHT22;12316;50.904;4.200;2023-06-10T10:22:41;29.00;77.40
24158;DHT22;12316;50.904;4.200;2023-06-10T10:25:16;29.10;78.00
24158;DHT22;12316;50.904;4.200;2023-06-10T10:27:48;29.10;78.00
24158;DHT22;12316;50.904;4.200;2023-06-10T10:30:17;29.40;76.40
24158;DHT22;12316;50.904;4.200;2023-06-10T10:35:21;29.70;76.10
24158;DHT22;12316;50.904;4.200;2023-06-10T10:37:53;29.70;76.50
24158;DHT22;12316;50.904;4.200;2023-06-10T10:40:22;29.80;75.20
24158;DHT22;12316;50.904;4.200;2023-06-10T10:42:49;29.80;72.80
24158;DHT22;12316;50.904;4.200;2023-06-10T10:45:15;29.80;73.20
24158;DHT22;12316;50.904;4.200;2023-06-10T10:47:43;29.80;72.20
24158;DHT22;12316;50.904;4.200;2023-06-10T10:50:17;29.80;72.10
24158;DHT22;12316;50.904;4.200;2023-06-10T10:53:01;30.10;72.70
24158;DHT22;12316;50.904;4.200;2023-06-10T10:55:27;30.30;73.60
24158;DHT22;12316;50.904;4.200;2023-06-10T10:57:59;30.40;69.70
24158;DHT22;12316;50.904;4.200;2023-06-10T11:00:43;30.30;68.40
24158;DHT22;12316;50.904;4.200;2023-06-10T11:03:14;30.10;70.10
24158;DHT22;12316;50.904;4.200;2023-06-10T11:05:41;30.00;72.60
24158;DHT22;12316;50.904;4.200;2023-06-10T11:08:10;30.10;69.90
24158;DHT22;12316;50.904;4.200;2023-06-10T11:10:37;30.00;69.30
24158;DHT22;12316;50.904;4.200;2023-06-10T11:13:13;30.10;70.70
24158;DHT22;12316;50.904;4.200;2023-06-10T11:15:46;30.20;70.40
24158;DHT22;12316;50.904;4.200;2023-06-10T11:18:25;30.20;70.30
24158;DHT22;12316;50.904;4.200;2023-06-10T11:20:53;30.50;70.80
24158;DHT22;12316;50.904;4.200;2023-06-10T11:26:21;30.60;68.40
24158;DHT22;12316;50.904;4.200;2023-06-10T11:31:20;30.80;67.60
24158;DHT22;12316;50.904;4.200;2023-06-10T11:33:47;30.80;66.20
24158;DHT22;12316;50.904;4.200;2023-06-10T11:36:14;30.70;65.10
24158;DHT22;12316;50.904;4.200;2023-06-10T11:38:40;30.80;65.00
24158;DHT22;12316;50.904;4.200;2023-06-10T11:41:06;31.00;66.00
24158;DHT22;12316;50.904;4.200;2023-06-10T11:43:33;31.10;65.70
24158;DHT22;12316;50.904;4.200;2023-06-10T11:45:59;31.00;65.50
24158;DHT22;12316;50.904;4.200;2023-06-10T11:48:25;30.80;65.80
24158;DHT22;12316;50.904;4.200;2023-06-10T11:50:53;30.80;65.60
24158;DHT22;12316;50.904;4.200;2023-06-10T11:53:19;30.80;66.80
24158;DHT22;12316;50.904;4.200;2023-06-10T11:55:46;30.70;66.30
24158;DHT22;12316;50.904;4.200;2023-06-10T11:58:22;30.60;67.50
24158;DHT22;12316;50.904;4.200;2023-06-10T12:00:55;30.50;66.90
24158;DHT22;12316;50.904;4.200;2023-06-10T12:03:24;30.50;65.50
24158;DHT22;12316;50.904;4.200;2023-06-10T12:06:01;30.40;64.90
24158;DHT22;12316;50.904;4.200;2023-06-10T12:08:27;30.40;66.10
24158;DHT22;12316;50.904;4.200;2023-06-10T12:10:53;30.50;67.50
24158;DHT22;12316;50.904;4.200;2023-06-10T12:13:19;30.50;66.70
24158;DHT22;12316;50.904;4.200;2023-06-10T12:15:46;30.60;66.10
24158;DHT22;12316;50.904;4.200;2023-06-10T12:18:24;30.50;65.30
24158;DHT22;12316;50.904;4.200;2023-06-10T12:20:50;30.80;66.50
24158;DHT22;12316;50.904;4.200;2023-06-10T12:23:17;30.90;66.30
24158;DHT22;12316;50.904;4.200;2023-06-10T12:25:50;31.00;66.40
24158;DHT22;12316;50.904;4.200;2023-06-10T12:28:23;31.20;67.80
24158;DHT22;12316;50.904;4.200;2023-06-10T12:30:49;31.20;66.10
24158;DHT22;12316;50.904;4.200;2023-06-10T12:33:21;31.20;65.00
24158;DHT22;12316;50.904;4.200;2023-06-10T12:35:51;31.10;66.00
24158;DHT22;12316;50.904;4.200;2023-06-10T12:38:24;31.00;66.10
24158;DHT22;12316;50.904;4.200;2023-06-10T12:40:52;31.20;68.00
24158;DHT22;12316;50.904;4.200;2023-06-10T12:43:22;31.00;67.10
24158;DHT22;12316;50.904;4.200;2023-06-10T12:45:49;31.20;67.00
24158;DHT22;12316;50.904;4.200;2023-06-10T12:48:20;31.00;66.40
24158;DHT22;12316;50.904;4.200;2023-06-10T12:50:51;30.90;66.00
24158;DHT22;12316;50.904;4.200;2023-06-10T12:53:18;30.60;67.00
24158;DHT22;12316;50.904;4.200;2023-06-10T12:55:45;30.50;66.70
24158;DHT22;12316;50.904;4.200;2023-06-10T12:58:11;30.60;67.70
24158;DHT22;12316;50.904;4.200;2023-06-10T13:00:37;30.80;67.00
24158;DHT22;12316;50.904;4.200;2023-06-10T13:03:03;31.00;67.30
24158;DHT22;12316;50.904;4.200;2023-06-10T13:05:31;31.30;67.40
24158;DHT22;12316;50.904;4.200;2023-06-10T13:07:58;31.20;66.90
24158;DHT22;12316;50.904;4.200;2023-06-10T13:10:24;31.20;66.20
24158;DHT22;12316;50.904;4.200;2023-06-10T13:12:51;31.20;66.80
24158;DHT22;12316;50.904;4.200;2023-06-10T13:15:17;31.10;64.60
24158;DHT22;12316;50.904;4.200;2023-06-10T13:17:46;31.00;64.70
24158;DHT22;12316;50.904;4.200;2023-06-10T13:20:15;31.00;65.60
24158;DHT22;12316;50.904;4.200;2023-06-10T13:22:42;31.10;65.30
24158;DHT22;12316;50.904;4.200;2023-06-10T13:25:08;31.20;64.80
24158;DHT22;12316;50.904;4.200;2023-06-10T13:27:34;31.30;67.10
24158;DHT22;12316;50.904;4.200;2023-06-10T13:30:00;31.50;64.30
24158;DHT22;12316;50.904;4.200;2023-06-10T13:32:26;31.40;66.40
24158;DHT22;12316;50.904;4.200;2023-06-10T13:34:52;31.60;65.70
24158;DHT22;12316;50.904;4.200;2023-06-10T13:37:19;31.60;64.20
24158;DHT22;12316;50.904;4.200;2023-06-10T13:39:45;31.40;65.10
24158;DHT22;12316;50.904;4.200;2023-06-10T13:42:16;31.30;65.10
24158;DHT22;12316;50.904;4.200;2023-06-10T13:44:42;31.20;64.70
24158;DHT22;12316;50.904;4.200;2023-06-10T13:47:07;31.00;65.70
24158;DHT22;12316;50.904;4.200;2023-06-10T13:49:33;31.10;65.70
24158;DHT22;12316;50.904;4.200;2023-06-10T13:51:59;31.20;66.20
24158;DHT22;12316;50.904;4.200;2023-06-10T13:54:24;31.50;66.10
24158;DHT22;12316;50.904;4.200;2023-06-10T13:56:50;31.50;64.60
24158;DHT22;12316;50.904;4.200;2023-06-10T13:59:16;31.50;64.70
24158;DHT22;12316;50.904;4.200;2023-06-10T14:01:42;31.30;63.60
24158;DHT22;12316;50.904;4.200;2023-06-10T14:04:08;31.20;63.80
24158;DHT22;12316;50.904;4.200;2023-06-10T14:06:33;31.10;64.50
24158;DHT22;12316;50.904;4.200;2023-06-10T14:09:00;31.10;64.40
24158;DHT22;12316;50.904;4.200;2023-06-10T14:11:25;31.30;65.40
24158;DHT22;12316;50.904;4.200;2023-06-10T14:13:52;31.30;65.80
24158;DHT22;12316;50.904;4.200;2023-06-10T14:16:18;31.40;65.40
24158;DHT22;12316;50.904;4.200;2023-06-10T14:18:43;31.60;64.30
24158;DHT22;12316;50.904;4.200;2023-06-10T14:21:09;31.50;64.20
24158;DHT22;12316;50.904;4.200;2023-06-10T14:23:35;31.50;63.40
24158;DHT22;12316;50.904;4.200;2023-06-10T14:26:00;31.30;62.40
24158;DHT22;12316;50.904;4.200;2023-06-10T14:28:28;31.50;64.20
24158;DHT22;12316;50.904;4.200;2023-06-10T14:30:54;31.50;63.80
24158;DHT22;12316;50.904;4.200;2023-06-10T14:33:20;31.70;63.40
24158;DHT22;12316;50.904;4.200;2023-06-10T14:35:46;31.80;63.60
24158;DHT22;12316;50.904;4.200;2023-06-10T14:38:12;32.00;63.30
24158;DHT22;12316;50.904;4.200;2023-06-10T14:40:37;31.90;63.10
24158;DHT22;12316;50.904;4.200;2023-06-10T14:43:03;32.00;63.60
24158;DHT22;12316;50.904;4.200;2023-06-10T14:45:38;32.10;63.30
24158;DHT22;12316;50.904;4.200;2023-06-10T14:48:05;32.10;63.60
24158;DHT22;12316;50.904;4.200;2023-06-10T14:50:34;32.10;64.80
24158;DHT22;12316;50.904;4.200;2023-06-10T14:53:00;32.10;74.20
24158;DHT22;12316;50.904;4.200;2023-06-10T14:55:25;31.90;70.60
24158;DHT22;12316;50.904;4.200;2023-06-10T14:57:51;31.90;68.60
24158;DHT22;12316;50.904;4.200;2023-06-10T15:00:17;31.90;67.80
24158;DHT22;12316;50.904;4.200;2023-06-10T15:02:47;31.80;69.60
24158;DHT22;12316;50.904;4.200;2023-06-10T15:05:17;31.70;67.40
24158;DHT22;12316;50.904;4.200;2023-06-10T15:07:45;31.70;66.40
24158;DHT22;12316;50.904;4.200;2023-06-10T15:10:11;31.60;68.80
24158;DHT22;12316;50.904;4.200;2023-06-10T15:12:37;31.30;67.30
24158;DHT22;12316;50.904;4.200;2023-06-10T15:15:03;31.20;66.80
24158;DHT22;12316;50.904;4.200;2023-06-10T15:17:29;31.10;66.50
24158;DHT22;12316;50.904;4.200;2023-06-10T15:19:55;31.10;67.20
24158;DHT22;12316;50.904;4.200;2023-06-10T15:22:21;31.10;68.20
24158;DHT22;12316;50.904;4.200;2023-06-10T15:24:46;31.20;67.90
24158;DHT22;12316;50.904;4.200;2023-06-10T15:27:12;31.40;69.40
24158;DHT22;12316;50.904;4.200;2023-06-10T15:29:38;31.50;67.00
24158;DHT22;12316;50.904;4.200;2023-06-10T15:32:04;31.60;67.20
24158;DHT22;12316;50.904;4.200;2023-06-10T15:34:29;31.70;65.60
24158;DHT22;12316;50.904;4.200;2023-06-10T15:36:55;31.70;65.90
24158;DHT22;12316;50.904;4.200;2023-06-10T15:39:21;31.60;65.50
24158;DHT22;12316;50.904;4.200;2023-06-10T15:41:46;31.70;65.90